createdAt,value
2023-12-27T00:01:59.158Z,101340.72
2023-12-27T00:04:27.850Z,101343.56
2023-12-27T00:06:58.218Z,101341.97
2023-12-27T00:09:24.848Z,101339.50
2023-12-27T00:11:51.576Z,101346.09
2023-12-27T00:14:18.052Z,101350.69
2023-12-27T00:16:44.488Z,101356.84
2023-12-27T00:19:11.219Z,101359.75
2023-12-27T00:21:37.887Z,101377.25
2023-12-27T00:24:04.583Z,101372.22
2023-12-27T00:26:31.088Z,101367.94
2023-12-27T00:28:57.566Z,101364.28
2023-12-27T00:31:24.389Z,101357.00
2023-12-27T00:33:51.316Z,101356.50
2023-12-27T00:36:30.167Z,101348.00
2023-12-27T00:38:58.145Z,101350.34
2023-12-27T00:41:27.064Z,101352.25
2023-12-27T00:43:53.481Z,101351.41
2023-12-27T00:46:20.104Z,101357.56
2023-12-27T00:48:46.631Z,101360.06
2023-12-27T00:51:20.865Z,101360.06
2023-12-27T00:53:47.593Z,101354.81
2023-12-27T00:56:14.126Z,101357.91
2023-12-27T00:58:40.617Z,101357.91
2023-12-27T01:01:07.300Z,101350.69
2023-12-27T01:03:33.815Z,101348.84
2023-12-27T01:06:02.602Z,101348.72
2023-12-27T01:08:29.106Z,101359.03
2023-12-27T01:10:55.771Z,101358.97
2023-12-27T01:13:22.256Z,101368.69
2023-12-27T01:15:48.689Z,101366.81
2023-12-27T01:18:17.816Z,101367.69
2023-12-27T01:20:44.385Z,101366.69
2023-12-27T01:23:10.818Z,101367.53
2023-12-27T01:25:41.858Z,101363.97
2023-12-27T01:28:08.406Z,101372.63
2023-12-27T01:30:35.006Z,101384.94
2023-12-27T01:33:02.746Z,101376.31
2023-12-27T01:35:29.486Z,101380.78
2023-12-27T01:37:56.499Z,101383.47
2023-12-27T01:40:23.015Z,101383.69
2023-12-27T01:42:49.473Z,101383.69
2023-12-27T01:45:16.019Z,101369.75
2023-12-27T01:47:43.483Z,101369.09
2023-12-27T01:50:10.715Z,101371.00
2023-12-27T01:52:42.221Z,101378.84
2023-12-27T01:55:10.645Z,101378.16
2023-12-27T01:57:41.558Z,101372.22
2023-12-27T02:00:09.328Z,101364.63
2023-12-27T02:02:38.734Z,101357.78
2023-12-27T02:05:08.665Z,101361.31
2023-12-27T02:07:37.027Z,101360.59
2023-12-27T02:10:04.682Z,101365.84
2023-12-27T02:12:32.235Z,101368.66
2023-12-27T02:14:59.134Z,101375.66
2023-12-27T02:17:29.651Z,101374.88
2023-12-27T02:19:56.943Z,101365.25
2023-12-27T02:22:28.408Z,101371.25
2023-12-27T02:24:55.204Z,101365.91
2023-12-27T02:27:22.606Z,101367.25
2023-12-27T02:29:49.370Z,101376.03
2023-12-27T02:32:16.036Z,101372.63
2023-12-27T02:34:44.794Z,101375.31
2023-12-27T02:37:13.882Z,101363.84
2023-12-27T02:39:40.397Z,101370.78
2023-12-27T02:42:09.536Z,101372.47
2023-12-27T02:44:36.220Z,101365.53
2023-12-27T02:47:08.463Z,101370.78
2023-12-27T02:49:35.140Z,101355.16
2023-12-27T02:52:01.651Z,101361.22
2023-12-27T02:54:28.105Z,101355.06
2023-12-27T02:56:54.989Z,101348.00
2023-12-27T02:59:21.556Z,101346.31
2023-12-27T03:01:48.079Z,101350.69
2023-12-27T03:04:16.587Z,101341.22
2023-12-27T03:06:43.121Z,101338.44
2023-12-27T03:09:09.814Z,101334.13
2023-12-27T03:11:36.276Z,101332.38
2023-12-27T03:14:03.222Z,101336.69
2023-12-27T03:16:29.924Z,101334.13
2023-12-27T03:18:57.472Z,101338.75
2023-12-27T03:21:26.414Z,101326.44
2023-12-27T03:23:53.008Z,101329.19
2023-12-27T03:26:19.465Z,101332.59
2023-12-27T03:28:45.924Z,101337.69
2023-12-27T03:31:13.584Z,101329.97
2023-12-27T03:33:40.425Z,101330.75
2023-12-27T03:36:07.463Z,101327.34
2023-12-27T03:38:33.941Z,101320.28
2023-12-27T03:41:00.581Z,101328.19
2023-12-27T03:43:27.053Z,101325.50
2023-12-27T03:45:55.541Z,101323.66
2023-12-27T03:48:22.587Z,101335.84
2023-12-27T03:50:49.207Z,101330.44
2023-12-27T03:53:15.848Z,101315.56
2023-12-27T03:55:45.351Z,101314.63
2023-12-27T03:58:11.890Z,101310.25
2023-12-27T04:00:40.801Z,101312.78
2023-12-27T04:03:07.484Z,101301.38
2023-12-27T04:05:36.199Z,101312.63
2023-12-27T04:08:02.863Z,101309.09
2023-12-27T04:10:33.069Z,101315.19
2023-12-27T04:13:02.543Z,101315.88
2023-12-27T04:15:29.292Z,101308.66
2023-12-27T04:17:56.252Z,101307.75
2023-12-27T04:20:22.914Z,101300.59
2023-12-27T04:22:51.778Z,101306.53
2023-12-27T04:25:18.715Z,101305.06
2023-12-27T04:27:45.185Z,101297.88
2023-12-27T04:30:13.021Z,101304.81
2023-12-27T04:32:39.634Z,101310.06
2023-12-27T04:35:06.683Z,101309.22
2023-12-27T04:37:33.273Z,101308.38
2023-12-27T04:39:59.688Z,101321.38
2023-12-27T04:42:26.159Z,101315.31
2023-12-27T04:44:52.640Z,101319.63
2023-12-27T04:47:21.177Z,101310.91
2023-12-27T04:49:47.850Z,101323.16
2023-12-27T04:52:15.934Z,101327.47
2023-12-27T04:54:42.579Z,101322.22
2023-12-27T04:57:09.141Z,101333.47
2023-12-27T04:59:35.696Z,101329.16
2023-12-27T05:02:04.407Z,101320.38
2023-12-27T05:04:30.915Z,101325.53
2023-12-27T05:06:59.568Z,101329.00
2023-12-27T05:09:26.109Z,101335.94
2023-12-27T05:11:54.781Z,101321.09
2023-12-27T05:14:23.381Z,101332.28
2023-12-27T05:16:50.285Z,101330.50
2023-12-27T05:19:21.631Z,101327.91
2023-12-27T05:21:48.212Z,101327.91
2023-12-27T05:24:14.865Z,101325.19
2023-12-27T05:26:44.359Z,101328.75
2023-12-27T05:29:11.982Z,101323.50
2023-12-27T05:31:38.546Z,101318.25
2023-12-27T05:34:05.261Z,101321.66
2023-12-27T05:36:31.928Z,101311.34
2023-12-27T05:38:58.503Z,101316.56
2023-12-27T05:41:27.072Z,101307.00
2023-12-27T05:43:57.165Z,101302.63
2023-12-27T05:46:25.978Z,101300.09
2023-12-27T05:48:52.878Z,101300.97
2023-12-27T05:51:19.485Z,101304.41
2023-12-27T05:53:45.979Z,101306.22
2023-12-27T05:56:12.464Z,101307.22
2023-12-27T05:58:41.287Z,101304.53
2023-12-27T06:01:10.685Z,101301.06
2023-12-27T06:03:37.273Z,101300.19
2023-12-27T06:06:06.433Z,101298.44
2023-12-27T06:08:33.020Z,101298.66
2023-12-27T06:11:00.150Z,101297.75
2023-12-27T06:13:26.686Z,101290.81
2023-12-27T06:15:53.823Z,101308.22
2023-12-27T06:18:20.860Z,101311.75
2023-12-27T06:20:47.477Z,101331.84
2023-12-27T06:23:16.316Z,101331.00
2023-12-27T06:25:42.909Z,101328.41
2023-12-27T06:28:09.350Z,101329.25
2023-12-27T06:30:35.912Z,101313.59
2023-12-27T06:33:02.753Z,101325.78
2023-12-27T06:35:29.334Z,101334.56
2023-12-27T06:37:56.092Z,101343.47
2023-12-27T06:40:25.213Z,101339.09
2023-12-27T06:42:56.721Z,101336.47
2023-12-27T06:45:23.205Z,101335.63
2023-12-27T06:47:50.418Z,101342.63
2023-12-27T06:50:19.340Z,101340.94
2023-12-27T06:52:46.033Z,101326.94
2023-12-27T06:55:12.635Z,101323.38
2023-12-27T06:57:41.079Z,101325.94
2023-12-27T07:00:08.479Z,101332.84
2023-12-27T07:02:40.087Z,101330.16
2023-12-27T07:05:08.099Z,101327.41
2023-12-27T07:07:36.037Z,101323.78
2023-12-27T07:10:02.697Z,101334.13
2023-12-27T07:12:29.601Z,101332.28
2023-12-27T07:14:56.512Z,101328.75
2023-12-27T07:17:25.478Z,101330.50
2023-12-27T07:19:52.191Z,101322.56
2023-12-27T07:22:18.703Z,101332.13
2023-12-27T07:24:45.296Z,101330.44
2023-12-27T07:27:11.901Z,101337.53
2023-12-27T07:29:38.425Z,101343.69
2023-12-27T07:32:06.325Z,101353.25
2023-12-27T07:34:33.952Z,101347.28
2023-12-27T07:37:00.823Z,101351.66
2023-12-27T07:39:27.566Z,101350.28
2023-12-27T07:41:54.140Z,101355.59
2023-12-27T07:44:21.921Z,101361.09
2023-12-27T07:46:48.476Z,101359.59
2023-12-27T07:49:15.107Z,101358.84
2023-12-27T07:51:41.829Z,101366.00
2023-12-27T07:54:08.686Z,101359.84
2023-12-27T07:56:36.396Z,101368.69
2023-12-27T07:59:05.926Z,101367.00
2023-12-27T08:01:32.982Z,101354.84
2023-12-27T08:04:02.603Z,101366.13
2023-12-27T08:06:32.049Z,101352.97
2023-12-27T08:08:58.958Z,101350.97
2023-12-27T08:11:25.621Z,101339.44
2023-12-27T08:13:52.422Z,101332.16
2023-12-27T08:16:19.048Z,101332.56
2023-12-27T08:18:45.600Z,101335.69
2023-12-27T08:21:14.967Z,101341.31
2023-12-27T08:23:41.465Z,101350.50
2023-12-27T08:26:08.766Z,101341.41
2023-12-27T08:28:35.506Z,101330.72
2023-12-27T08:31:02.612Z,101318.31
2023-12-27T08:33:31.467Z,101320.78
2023-12-27T08:36:00.496Z,101303.19
2023-12-27T08:38:27.102Z,101276.78
2023-12-27T08:40:55.901Z,101265.13
2023-12-27T08:43:22.807Z,101250.75
2023-12-27T08:45:49.497Z,101256.72
2023-12-27T08:48:18.724Z,101272.97
2023-12-27T08:50:45.951Z,101293.63
2023-12-27T08:53:12.876Z,101297.63
2023-12-27T08:55:39.565Z,101298.31
2023-12-27T08:58:06.773Z,101296.38
2023-12-27T09:00:34.138Z,101305.56
2023-12-27T09:03:00.811Z,101302.97
2023-12-27T09:05:27.381Z,101291.22
2023-12-27T09:07:53.917Z,101292.59
2023-12-27T09:10:20.401Z,101299.38
2023-12-27T09:12:49.039Z,101308.78
2023-12-27T09:15:15.731Z,101316.97
2023-12-27T09:17:42.521Z,101327.41
2023-12-27T09:20:10.432Z,101327.31
2023-12-27T09:22:37.515Z,101320.19
2023-12-27T09:25:07.069Z,101331.31
2023-12-27T09:27:35.869Z,101338.72
2023-12-27T09:30:02.355Z,101338.25
2023-12-27T09:32:31.471Z,101332.81
2023-12-27T09:35:00.563Z,101328.50
2023-12-27T09:37:27.120Z,101331.72
2023-12-27T09:39:53.559Z,101319.34
2023-12-27T09:42:20.388Z,101308.81
2023-12-27T09:44:49.198Z,101300.00
2023-12-27T09:47:17.020Z,101291.63
2023-12-27T09:49:44.074Z,101298.13
2023-12-27T09:52:13.164Z,101288.25
2023-12-27T09:54:39.858Z,101272.97
2023-12-27T09:57:08.186Z,101251.63
2023-12-27T09:59:40.517Z,101251.44
2023-12-27T10:02:14.873Z,101239.88
2023-12-27T10:04:49.125Z,101223.09
2023-12-27T10:07:18.220Z,101203.19
2023-12-27T10:09:49.848Z,101203.28
2023-12-27T10:12:16.546Z,101174.84
2023-12-27T10:14:43.806Z,101165.75
2023-12-27T10:17:10.294Z,101148.03
2023-12-27T10:19:38.650Z,101139.47
2023-12-27T10:22:05.429Z,101117.78
2023-12-27T10:24:32.468Z,101097.78
2023-12-27T10:26:59.267Z,101093.38
2023-12-27T10:29:51.751Z,101085.13
2023-12-27T10:32:18.802Z,101076.22
2023-12-27T10:34:49.438Z,101062.97
2023-12-27T10:37:17.197Z,101064.19
2023-12-27T10:39:47.593Z,101062.97
2023-12-27T10:42:17.587Z,101059.97
2023-12-27T10:44:47.899Z,101052.63
2023-12-27T10:47:18.713Z,101041.00
2023-12-27T10:49:49.329Z,101039.66
2023-12-27T10:52:17.261Z,101024.28
2023-12-27T10:54:47.301Z,101011.47
2023-12-27T10:57:18.604Z,100993.03
2023-12-27T10:59:48.541Z,100983.75
2023-12-27T11:02:16.027Z,100989.59
2023-12-27T11:04:44.116Z,100987.25
2023-12-27T11:07:12.631Z,100983.78
2023-12-27T11:09:43.972Z,100963.59
2023-12-27T11:12:11.304Z,100961.50
2023-12-27T11:14:41.298Z,100954.09
2023-12-27T11:17:09.360Z,100950.72
2023-12-27T11:19:37.024Z,100943.75
2023-12-27T11:22:03.642Z,100932.50
2023-12-27T11:24:30.199Z,100932.59
2023-12-27T11:27:07.693Z,100938.41
2023-12-27T11:29:35.477Z,100934.53
2023-12-27T11:32:02.075Z,100927.19
2023-12-27T11:34:29.021Z,100929.06
2023-12-27T11:36:55.865Z,100925.19
2023-12-27T11:39:29.282Z,100919.06
2023-12-27T11:41:56.005Z,100916.56
2023-12-27T11:44:22.533Z,100903.81
2023-12-27T11:46:49.102Z,100893.06
2023-12-27T11:49:22.486Z,100882.88
2023-12-27T11:51:49.234Z,100879.19
2023-12-27T11:54:23.254Z,100871.19
2023-12-27T11:56:51.690Z,100866.53
2023-12-27T11:59:18.284Z,100859.38
2023-12-27T12:01:45.182Z,100841.91
2023-12-27T12:04:38.479Z,100839.38
2023-12-27T12:07:37.920Z,100822.13
2023-12-27T12:10:04.953Z,100820.13
2023-12-27T12:12:32.281Z,100810.34
2023-12-27T12:14:59.615Z,100801.72
2023-12-27T12:17:29.506Z,100789.72
2023-12-27T12:19:56.884Z,100771.94
2023-12-27T12:22:23.612Z,100765.72
2023-12-27T12:24:50.254Z,100765.09
2023-12-27T12:27:22.713Z,100771.31
2023-12-27T12:29:51.597Z,100769.84
2023-12-27T12:32:18.045Z,100756.06
2023-12-27T12:34:44.621Z,100755.63
2023-12-27T12:37:12.206Z,100767.81
2023-12-27T12:39:39.826Z,100766.34
2023-12-27T12:42:08.378Z,100763.19
2023-12-27T12:44:35.107Z,100765.06
2023-12-27T12:47:02.057Z,100751.84
2023-12-27T12:49:30.760Z,100754.53
2023-12-27T12:52:08.559Z,100750.53
2023-12-27T12:54:35.796Z,100753.28
2023-12-27T12:57:02.884Z,100735.81
2023-12-27T12:59:30.931Z,100736.78
2023-12-27T13:01:57.611Z,100745.19
2023-12-27T13:04:25.326Z,100736.66
2023-12-27T13:07:05.017Z,100739.41
2023-12-27T13:09:32.140Z,100726.47
2023-12-27T13:11:58.972Z,100725.53
2023-12-27T13:14:25.888Z,100714.28
2023-12-27T13:16:52.350Z,100715.28
2023-12-27T13:19:19.157Z,100704.69
2023-12-27T13:21:45.888Z,100707.84
2023-12-27T13:24:12.755Z,100707.97
2023-12-27T13:26:39.485Z,100714.16
2023-12-27T13:29:09.824Z,100715.00
2023-12-27T13:31:38.749Z,100708.25
2023-12-27T13:34:08.487Z,100710.13
2023-12-27T13:36:35.207Z,100702.16
2023-12-27T13:39:01.658Z,100707.63
2023-12-27T13:41:28.259Z,100711.09
2023-12-27T13:43:54.737Z,100712.03
2023-12-27T13:46:21.468Z,100708.16
2023-12-27T13:48:48.065Z,100709.09
2023-12-27T13:51:15.562Z,100710.22
2023-12-27T13:53:42.110Z,100722.72
2023-12-27T13:56:08.933Z,100728.41
2023-12-27T13:58:36.658Z,100729.44
2023-12-27T14:01:03.786Z,100722.69
2023-12-27T14:03:31.825Z,100727.94
2023-12-27T14:05:59.373Z,100727.31
2023-12-27T14:08:28.351Z,100736.56
2023-12-27T14:10:56.281Z,100728.94
2023-12-27T14:13:22.709Z,100732.50
2023-12-27T14:15:49.333Z,100738.19
2023-12-27T14:18:16.286Z,100738.47
2023-12-27T14:20:43.824Z,100742.31
2023-12-27T14:23:10.541Z,100745.34
2023-12-27T14:25:37.012Z,100743.13
2023-12-27T14:28:04.112Z,100738.88
2023-12-27T14:30:33.126Z,100746.22
2023-12-27T14:33:00.304Z,100744.00
2023-12-27T14:35:27.256Z,100738.19
2023-12-27T14:37:55.348Z,100738.44
2023-12-27T14:40:22.418Z,100740.63
2023-12-27T14:42:51.815Z,100752.31
2023-12-27T14:45:18.837Z,100750.19
2023-12-27T14:47:50.497Z,100746.13
2023-12-27T14:50:18.956Z,100743.16
2023-12-27T14:52:45.608Z,100744.50
2023-12-27T14:55:12.159Z,100743.16
2023-12-27T14:57:39.045Z,100754.03
2023-12-27T15:00:07.536Z,100744.09
2023-12-27T15:02:38.277Z,100745.41
2023-12-27T15:05:05.640Z,100746.59
2023-12-27T15:07:32.314Z,100754.91
2023-12-27T15:10:04.427Z,100753.75
2023-12-27T15:12:31.731Z,100755.06
2023-12-27T15:14:58.270Z,100757.19
2023-12-27T15:17:27.490Z,100765.31
2023-12-27T15:19:59.358Z,100767.50
2023-12-27T15:22:31.740Z,100778.44
2023-12-27T15:24:58.887Z,100786.75
2023-12-27T15:27:26.578Z,100791.38
2023-12-27T15:29:58.542Z,100798.09
2023-12-27T15:32:25.795Z,100803.63
2023-12-27T15:34:52.584Z,100802.22
2023-12-27T15:37:21.748Z,100805.09
2023-12-27T15:39:49.458Z,100806.34
2023-12-27T15:42:18.519Z,100803.22
2023-12-27T15:44:45.089Z,100813.00
2023-12-27T15:47:13.303Z,100807.25
2023-12-27T15:49:41.096Z,100809.28
2023-12-27T15:52:08.177Z,100805.19
2023-12-27T15:54:36.793Z,100812.47
2023-12-27T15:57:05.325Z,100810.09
2023-12-27T15:59:34.169Z,100810.94
2023-12-27T16:02:00.990Z,100806.19
2023-12-27T16:04:27.586Z,100802.22
2023-12-27T16:06:56.868Z,100803.44
2023-12-27T16:09:23.606Z,100804.44
2023-12-27T16:11:51.667Z,100798.66
2023-12-27T16:14:18.541Z,100790.19
2023-12-27T16:16:45.526Z,100791.28
2023-12-27T16:19:14.993Z,100793.31
2023-12-27T16:21:43.194Z,100788.38
2023-12-27T16:24:11.202Z,100795.44
2023-12-27T16:26:38.040Z,100783.38
2023-12-27T16:29:07.309Z,100787.94
2023-12-27T16:31:34.477Z,100784.63
2023-12-27T16:34:02.956Z,100783.16
2023-12-27T16:36:31.312Z,100782.31
2023-12-27T16:38:58.385Z,100783.31
2023-12-27T16:41:25.658Z,100782.56
2023-12-27T16:43:58.716Z,100775.88
2023-12-27T16:46:28.742Z,100785.63
2023-12-27T16:48:57.464Z,100781.03
2023-12-27T16:51:24.647Z,100787.47
2023-12-27T16:53:51.736Z,100787.63
2023-12-27T16:56:19.292Z,100775.47
2023-12-27T16:58:47.887Z,100778.09
2023-12-27T17:01:19.264Z,100777.25
2023-12-27T17:03:46.296Z,100770.09
2023-12-27T17:06:13.264Z,100765.88
2023-12-27T17:08:40.590Z,100758.13
2023-12-27T17:11:07.540Z,100750.88
2023-12-27T17:13:38.971Z,100763.03
2023-12-27T17:16:11.173Z,100761.34
2023-12-27T17:18:37.989Z,100763.19
2023-12-27T17:21:08.326Z,100761.50
2023-12-27T17:23:36.941Z,100758.13
2023-12-27T17:26:07.610Z,100761.34
2023-12-27T17:28:34.606Z,100759.81
2023-12-27T17:31:02.547Z,100761.66
2023-12-27T17:33:29.559Z,100756.59
2023-12-27T17:35:59.003Z,100764.63
2023-12-27T17:38:25.711Z,100764.50
2023-12-27T17:40:52.256Z,100762.09
2023-12-27T17:43:18.944Z,100762.34
2023-12-27T17:45:45.933Z,100757.19
2023-12-27T17:48:12.784Z,100758.88
2023-12-27T17:50:44.342Z,100761.66
2023-12-27T17:53:14.222Z,100760.88
2023-12-27T17:55:41.122Z,100747.19
2023-12-27T17:58:11.063Z,100738.38
2023-12-27T18:00:38.192Z,100740.28
2023-12-27T18:03:09.844Z,100741.97
2023-12-27T18:05:36.592Z,100738.75
2023-12-27T18:08:03.684Z,100734.38
2023-12-27T18:10:31.596Z,100737.66
2023-12-27T18:12:58.571Z,100730.16
2023-12-27T18:15:25.964Z,100734.97
2023-12-27T18:17:52.747Z,100729.91
2023-12-27T18:20:19.471Z,100730.84
2023-12-27T18:22:46.453Z,100721.41
2023-12-27T18:25:13.315Z,100724.16
2023-12-27T18:27:39.933Z,100730.00
2023-12-27T18:30:10.974Z,100728.69
2023-12-27T18:32:38.381Z,100729.38
2023-12-27T18:35:05.607Z,100727.97
2023-12-27T18:37:32.700Z,100733.84
2023-12-27T18:39:59.301Z,100726.38
2023-12-27T18:42:28.456Z,100732.16
2023-12-27T18:44:55.107Z,100728.47
2023-12-27T18:47:26.684Z,100728.47
2023-12-27T18:49:53.300Z,100725.25
2023-12-27T18:52:19.950Z,100728.31
2023-12-27T18:54:46.726Z,100722.16
2023-12-27T18:57:14.296Z,100720.03
2023-12-27T18:59:41.098Z,100718.47
2023-12-27T19:02:07.570Z,100717.75
2023-12-27T19:04:38.502Z,100716.00
2023-12-27T19:07:08.985Z,100710.00
2023-12-27T19:09:36.246Z,100709.09
2023-12-27T19:12:04.542Z,100712.13
2023-12-27T19:14:31.485Z,100719.91
2023-12-27T19:17:00.334Z,100721.72
2023-12-27T19:19:27.102Z,100727.66
2023-12-27T19:21:57.526Z,100735.34
2023-12-27T19:24:24.221Z,100740.38
2023-12-27T19:26:50.988Z,100749.47
2023-12-27T19:29:20.188Z,100752.97
2023-12-27T19:31:46.731Z,100750.84
2023-12-27T19:34:14.112Z,100746.22
2023-12-27T19:36:40.993Z,100743.59
2023-12-27T19:39:08.042Z,100745.53
2023-12-27T19:41:34.977Z,100744.94
2023-12-27T19:44:04.035Z,100740.06
2023-12-27T19:46:35.796Z,100743.59
2023-12-27T19:49:02.652Z,100748.81
2023-12-27T19:51:29.873Z,100747.28
2023-12-27T19:53:56.596Z,100744.81
2023-12-27T19:56:23.601Z,100756.09
2023-12-27T19:58:52.497Z,100754.34
2023-12-27T20:01:19.297Z,100749.53
2023-12-27T20:03:45.949Z,100744.06
2023-12-27T20:06:14.505Z,100742.38
2023-12-27T20:08:44.209Z,100751.25
2023-12-27T20:11:14.134Z,100748.16
2023-12-27T20:13:41.455Z,100743.22
2023-12-27T20:16:08.170Z,100753.84
2023-12-27T20:18:34.881Z,100752.00
2023-12-27T20:21:02.668Z,100752.81
2023-12-27T20:23:31.519Z,100756.31
2023-12-27T20:25:58.552Z,100760.00
2023-12-27T20:28:27.898Z,100751.69
2023-12-27T20:30:54.397Z,100757.53
2023-12-27T20:33:21.112Z,100765.34
2023-12-27T20:35:52.313Z,100772.13
2023-12-27T20:38:18.756Z,100769.00
2023-12-27T20:40:45.908Z,100772.81
2023-12-27T20:43:14.684Z,100770.41
2023-12-27T20:45:47.037Z,100772.81
2023-12-27T20:48:14.452Z,100769.69
2023-12-27T20:50:43.570Z,100763.16
2023-12-27T20:53:12.922Z,100775.41
2023-12-27T20:55:39.369Z,100772.94
2023-12-27T20:58:05.899Z,100786.44
2023-12-27T21:00:32.493Z,100800.94
2023-12-27T21:03:02.588Z,100792.00
2023-12-27T21:05:30.195Z,100789.41
2023-12-27T21:07:57.170Z,100791.94
2023-12-27T21:10:23.762Z,100780.78
2023-12-27T21:12:50.558Z,100791.34
2023-12-27T21:15:17.200Z,100786.91
2023-12-27T21:17:43.709Z,100781.19
2023-12-27T21:20:11.438Z,100790.69
2023-12-27T21:22:40.105Z,100779.34
2023-12-27T21:25:10.099Z,100775.56
2023-12-27T21:27:36.815Z,100774.69
2023-12-27T21:30:03.655Z,100782.59
2023-12-27T21:32:30.277Z,100775.56
2023-12-27T21:34:56.954Z,100771.63
2023-12-27T21:37:23.456Z,100766.97
2023-12-27T21:39:50.000Z,100765.28
2023-12-27T21:42:19.209Z,100769.63
2023-12-27T21:44:45.857Z,100778.06
2023-12-27T21:47:12.342Z,100773.75
2023-12-27T21:49:38.977Z,100777.13
2023-12-27T21:52:05.660Z,100771.00
2023-12-27T21:54:32.443Z,100776.63
2023-12-27T21:56:58.901Z,100767.88
2023-12-27T21:59:25.595Z,100754.59
2023-12-27T22:01:52.138Z,100759.94
2023-12-27T22:04:18.937Z,100771.94
2023-12-27T22:06:46.231Z,100768.03
2023-12-27T22:09:17.569Z,100764.13
2023-12-27T22:11:44.340Z,100768.66
2023-12-27T22:14:10.780Z,100780.06
2023-12-27T22:16:37.362Z,100784.84
2023-12-27T22:19:04.109Z,100774.66
2023-12-27T22:21:31.288Z,100764.59
2023-12-27T22:23:58.343Z,100760.47
2023-12-27T22:26:27.241Z,100739.91
2023-12-27T22:28:58.531Z,100741.59
2023-12-27T22:31:25.526Z,100742.78
2023-12-27T22:33:52.475Z,100741.19
2023-12-27T22:36:23.212Z,100737.16
2023-12-27T22:38:57.036Z,100739.31
2023-12-27T22:41:23.612Z,100733.38
2023-12-27T22:43:52.933Z,100739.09
2023-12-27T22:46:23.062Z,100755.63
2023-12-27T22:48:49.709Z,100764.28
2023-12-27T22:51:16.286Z,100750.94
2023-12-27T22:53:45.248Z,100743.13
2023-12-27T22:56:11.818Z,100752.09
2023-12-27T22:58:38.233Z,100770.41
2023-12-27T23:01:05.071Z,100773.19
2023-12-27T23:03:33.712Z,100778.97
2023-12-27T23:06:00.222Z,100772.28
2023-12-27T23:08:26.890Z,100762.22
2023-12-27T23:10:56.192Z,100749.31
2023-12-27T23:13:22.683Z,100767.72
2023-12-27T23:15:51.579Z,100757.47
2023-12-27T23:18:18.140Z,100759.94
2023-12-27T23:20:44.687Z,100763.19
2023-12-27T23:23:14.430Z,100762.13
2023-12-27T23:25:47.045Z,100777.63
2023-12-27T23:28:15.630Z,100780.09
2023-12-27T23:30:44.875Z,100806.47
2023-12-27T23:33:13.318Z,100805.38
2023-12-27T23:35:44.828Z,100795.66
2023-12-27T23:38:13.407Z,100787.75
2023-12-27T23:40:39.932Z,100792.28
2023-12-27T23:43:06.504Z,100809.19
2023-12-27T23:45:35.498Z,100803.69
2023-12-27T23:48:02.509Z,100795.19
2023-12-27T23:50:31.330Z,100787.75
2023-12-27T23:52:57.852Z,100774.50
2023-12-27T23:55:26.678Z,100774.72
2023-12-27T23:57:53.288Z,100781.84
